Rain From: 22-06-2018 10:43 Until: 18:30 warning for: Rain Level: Yellow info button
suomi:
Sadevaroitus: voi sataa runsaasti, yli 50 mm vuorokaudessa.

svenska:
Nederbördsvarning: kan det förekomma riklig nederbörd, mer än 50 mm i dygnet.

english:
Heavy rain warning: heavy rain of more than 50 mm in the 24 hours can be expected. 


Thunder radar more information blitzortung!


Löydät sääaseman tiedot myös:

European Weather Network

Finland Weather Exchange

Weather Underground

AWEKAS



Weather Underground säähistoriasivu

Päivittäin yhteenveto Tammikuu 5, 2017 Yksiköt:  Molemmat    Englantilaiset   Metriset
« Edellinen Päivä
Seuraava Päivä »
Päivittäin Viikoittain Kuukausittain Vuosittain Mukautettu
  Korkea: Matala: Keskiarvo:
Lämpötila: TemperatureC °F /  -17.8 °C -21.8 °F /  -29.9 °C -19.1 °F /  -28.4 °C
Kastepiste: DewpointC °F /  -17.8 °C -23.7 °F /  -30.9 °C -20.8 °F /  -29.3 °C
Kosteus: Humidity % 85 % 85 %
Tuulen nopeus: WindSpeedKMH mph /  0 km/h - 0 mph /  0 km/h
Tuulenpuuska: WindSpeedGustKMH mph /  0 km/h - -
Tuuli:- - North
Ilmanpaine: PressurehPa in /  0 hPa 1022.9 in /  34635.4 hPa -
Sade: 0.0 in /  0 mm    
Historical Graphs
 
 
Taulukkotiedot Tammikuu 5, 2017
Aika Lämpötila Kastepiste Ilmanpaine Tuuli Tuulen nopeus Tuulenpuuska Kosteus Sademäärä (tunneittain)
TemperatureC °F /  -17.8 °C DewpointC °F /  -17.8 °C PressurehPa in /  0 hPa Calm     Humidity % HourlyPrecipMM in /  0 mm
00:00 -18.8 °F /  -28.2 °C -20.5 °F /  -29.2 °C 1022.9 in /  34635.4 hPa Calm     87 % 0.0 in /  0 mm
00:15 -18.9 °F /  -28.3 °C -20.7 °F /  -29.3 °C 1023.2 in /  34645.6 hPa Calm     86 % 0.0 in /  0 mm
00:30 -19.2 °F /  -28.4 °C -21.0 °F /  -29.4 °C 1023.2 in /  34645.6 hPa Calm     86 % 0.0 in /  0 mm
00:45 -19.1 °F /  -28.4 °C -20.7 °F /  -29.3 °C 1023.6 in /  34659.1 hPa Calm     87 % 0.0 in /  0 mm
01:15 -19.1 °F /  -28.4 °C -20.7 °F /  -29.3 °C 1023.9 in /  34669.3 hPa Calm     87 % 0.0 in /  0 mm
01:30 -18.9 °F /  -28.3 °C -20.6 °F /  -29.2 °C 1023.9 in /  34669.3 hPa Calm     87 % 0.0 in /  0 mm
01:45 -18.9 °F /  -28.3 °C -20.6 °F /  -29.2 °C 1023.9 in /  34669.3 hPa Calm     87 % 0.0 in /  0 mm
02:00 -18.9 °F /  -28.3 °C -20.6 °F /  -29.2 °C 1024.3 in /  34682.8 hPa Calm     87 % 0.0 in /  0 mm
02:15 -18.9 °F /  -28.3 °C -20.6 °F /  -29.2 °C 1024.3 in /  34682.8 hPa Calm     87 % 0.0 in /  0 mm
02:30 -18.9 °F /  -28.3 °C -20.5 °F /  -29.2 °C 1024.6 in /  34693 hPa Calm     87 % 0.0 in /  0 mm
02:45 -18.7 °F /  -28.2 °C -20.3 °F /  -29.1 °C 1024.6 in /  34693 hPa Calm     87 % 0.0 in /  0 mm
03:00 -19.1 °F /  -28.4 °C -20.9 °F /  -29.4 °C 1024.6 in /  34693 hPa Calm     86 % 0.0 in /  0 mm
03:15 -19.2 °F /  -28.4 °C -20.8 °F /  -29.3 °C 1024.9 in /  34703.1 hPa Calm     87 % 0.0 in /  0 mm
03:30 -18.9 °F /  -28.3 °C -20.6 °F /  -29.2 °C 1025.3 in /  34716.7 hPa Calm     87 % 0.0 in /  0 mm
03:45 -18.6 °F /  -28.1 °C -20.1 °F /  -28.9 °C 1025.3 in /  34716.7 hPa Calm     88 % 0.0 in /  0 mm
04:00 -18.3 °F /  -27.9 °C -19.9 °F /  -28.8 °C 1025.6 in /  34726.8 hPa Calm     87 % 0.0 in /  0 mm
04:15 -18.2 °F /  -27.9 °C -19.8 °F /  -28.8 °C 1026.0 in /  34740.4 hPa Calm     87 % 0.0 in /  0 mm
04:30 -18.0 °F /  -27.8 °C -19.6 °F /  -28.7 °C 1026.3 in /  34750.5 hPa Calm     87 % 0.0 in /  0 mm
04:45 -17.9 °F /  -27.7 °C -19.6 °F /  -28.7 °C 1026.3 in /  34750.5 hPa Calm     87 % 0.0 in /  0 mm
05:00 -18.0 °F /  -27.8 °C -19.8 °F /  -28.8 °C 1026.6 in /  34760.7 hPa Calm     86 % 0.0 in /  0 mm
05:15 -18.0 °F /  -27.8 °C -19.8 °F /  -28.8 °C 1026.6 in /  34760.7 hPa Calm     86 % 0.0 in /  0 mm
05:30 -18.1 °F /  -27.8 °C -19.8 °F /  -28.8 °C 1027.0 in /  34774.2 hPa Calm     86 % 0.0 in /  0 mm
05:45 -18.2 °F /  -27.9 °C -20.0 °F /  -28.9 °C 1027.0 in /  34774.2 hPa Calm     86 % 0.0 in /  0 mm
06:00 -18.2 °F /  -27.9 °C -19.8 °F /  -28.8 °C 1027.0 in /  34774.2 hPa Calm     87 % 0.0 in /  0 mm
06:15 -18.2 °F /  -27.9 °C -20.0 °F /  -28.9 °C 1027.3 in /  34784.4 hPa Calm     86 % 0.0 in /  0 mm
06:30 -18.4 °F /  -28 °C -20.3 °F /  -29.1 °C 1027.3 in /  34784.4 hPa Calm     85 % 0.0 in /  0 mm
06:45 -18.7 °F /  -28.2 °C -20.6 °F /  -29.2 °C 1027.7 in /  34797.9 hPa Calm     85 % 0.0 in /  0 mm
07:00 -18.9 °F /  -28.3 °C -20.6 °F /  -29.2 °C 1027.7 in /  34797.9 hPa Calm     86 % 0.0 in /  0 mm
07:15 -19.1 °F /  -28.4 °C -21.0 °F /  -29.4 °C 1028.0 in /  34808.1 hPa Calm     85 % 0.0 in /  0 mm
07:30 -19.2 °F /  -28.4 °C -21.0 °F /  -29.4 °C 1028.0 in /  34808.1 hPa Calm     86 % 0.0 in /  0 mm
07:45 -19.3 °F /  -28.5 °C -21.0 °F /  -29.4 °C 1028.3 in /  34818.2 hPa Calm     86 % 0.0 in /  0 mm
08:00 -19.3 °F /  -28.5 °C -21.0 °F /  -29.4 °C 1028.3 in /  34818.2 hPa Calm     86 % 0.0 in /  0 mm
08:15 -19.2 °F /  -28.4 °C -21.0 °F /  -29.4 °C 1028.7 in /  34831.8 hPa Calm   3.2 mph /  5.1 km/h 86 % 0.0 in /  0 mm
08:30 -19.3 °F /  -28.5 °C -21.0 °F /  -29.4 °C 1029.0 in /  34841.9 hPa Calm     86 % 0.0 in /  0 mm
08:45 -19.4 °F /  -28.6 °C -21.1 °F /  -29.5 °C 1029.0 in /  34841.9 hPa Calm     86 % 0.0 in /  0 mm
09:00 -19.3 °F /  -28.5 °C -20.9 °F /  -29.4 °C 1029.0 in /  34841.9 hPa Calm     87 % 0.0 in /  0 mm
09:15 -19.6 °F /  -28.7 °C -21.4 °F /  -29.7 °C 1029.3 in /  34852.1 hPa Calm     85 % 0.0 in /  0 mm
09:30 -19.9 °F /  -28.8 °C -21.8 °F /  -29.9 °C 1029.7 in /  34865.6 hPa Calm     85 % 0.0 in /  0 mm
09:45 -20.2 °F /  -29 °C -22.1 °F /  -30.1 °C 1030.0 in /  34875.8 hPa Calm     85 % 0.0 in /  0 mm
10:00 -20.4 °F /  -29.1 °C -22.1 °F /  -30.1 °C 1030.4 in /  34889.3 hPa Calm     86 % 0.0 in /  0 mm
10:15 -20.3 °F /  -29.1 °C -22.1 °F /  -30.1 °C 1030.4 in /  34889.3 hPa Calm     86 % 0.0 in /  0 mm
10:30 -20.2 °F /  -29 °C -22.0 °F /  -30 °C 1030.7 in /  34899.5 hPa Calm     86 % 0.0 in /  0 mm
10:45 -20.2 °F /  -29 °C -22.0 °F /  -30 °C 1030.7 in /  34899.5 hPa Calm     86 % 0.0 in /  0 mm
11:00 -20.1 °F /  -28.9 °C -21.7 °F /  -29.8 °C 1031.0 in /  34909.7 hPa Calm     87 % 0.0 in /  0 mm
11:15 -19.6 °F /  -28.7 °C -21.1 °F /  -29.5 °C 1031.0 in /  34909.7 hPa Calm     88 % 0.0 in /  0 mm
11:30 -19.0 °F /  -28.3 °C -20.5 °F /  -29.2 °C 1031.4 in /  34923.2 hPa Calm     88 % 0.0 in /  0 mm
11:45 -18.8 °F /  -28.2 °C -20.4 °F /  -29.1 °C 1031.4 in /  34923.2 hPa Calm     87 % 0.0 in /  0 mm
12:00 -18.7 °F /  -28.2 °C -20.3 °F /  -29.1 °C 1031.4 in /  34923.2 hPa Calm     87 % 0.0 in /  0 mm
12:15 -18.8 °F /  -28.2 °C -20.6 °F /  -29.2 °C 1031.4 in /  34923.2 hPa Calm     86 % 0.0 in /  0 mm
12:30 -18.7 °F /  -28.2 °C -20.3 °F /  -29.1 °C 1031.4 in /  34923.2 hPa Calm     87 % 0.0 in /  0 mm
12:45 -18.5 °F /  -28.1 °C -20.1 °F /  -28.9 °C 1031.4 in /  34923.2 hPa Calm     87 % 0.0 in /  0 mm
13:00 -18.4 °F /  -28 °C -20.0 °F /  -28.9 °C 1031.4 in /  34923.2 hPa Calm     87 % 0.0 in /  0 mm
13:15 -18.4 °F /  -28 °C -20.0 °F /  -28.9 °C 1031.7 in /  34933.4 hPa Calm     87 % 0.0 in /  0 mm
13:30 -18.2 °F /  -27.9 °C -19.7 °F /  -28.7 °C 1031.7 in /  34933.4 hPa Calm     88 % 0.0 in /  0 mm
13:45 -18.0 °F /  -27.8 °C -19.6 °F /  -28.7 °C 1031.7 in /  34933.4 hPa Calm     87 % 0.0 in /  0 mm
14:00 -17.9 °F /  -27.7 °C -19.6 °F /  -28.7 °C 1031.7 in /  34933.4 hPa Calm     87 % 0.0 in /  0 mm
14:15 -17.8 °F /  -27.7 °C -19.5 °F /  -28.6 °C 1032.1 in /  34946.9 hPa Calm     87 % 0.0 in /  0 mm
14:30 -17.8 °F /  -27.7 °C -19.5 °F /  -28.6 °C 1032.1 in /  34946.9 hPa Calm     87 % 0.0 in /  0 mm
14:45 -17.9 °F /  -27.7 °C -19.6 °F /  -28.7 °C 1032.1 in /  34946.9 hPa Calm     87 % 0.0 in /  0 mm
15:00 -18.2 °F /  -27.9 °C -19.9 °F /  -28.8 °C 1032.1 in /  34946.9 hPa Calm     86 % 0.0 in /  0 mm
15:15 -18.3 °F /  -27.9 °C -20.0 °F /  -28.9 °C 1032.4 in /  34957.1 hPa Calm     87 % 0.0 in /  0 mm
15:30 -18.6 °F /  -28.1 °C -20.4 °F /  -29.1 °C 1032.4 in /  34957.1 hPa Calm     86 % 0.0 in /  0 mm
15:45 -18.8 °F /  -28.2 °C -20.6 °F /  -29.2 °C 1032.7 in /  34967.2 hPa Calm     86 % 0.0 in /  0 mm
16:00 -19.1 °F /  -28.4 °C -20.8 °F /  -29.3 °C 1032.7 in /  34967.2 hPa Calm     86 % 0.0 in /  0 mm
16:15 -19.2 °F /  -28.4 °C -21.0 °F /  -29.4 °C 1032.7 in /  34967.2 hPa Calm     86 % 0.0 in /  0 mm
16:30 -19.4 °F /  -28.6 °C -21.1 °F /  -29.5 °C 1032.7 in /  34967.2 hPa Calm     86 % 0.0 in /  0 mm
16:45 -19.5 °F /  -28.6 °C -21.2 °F /  -29.6 °C 1033.1 in /  34980.8 hPa Calm     86 % 0.0 in /  0 mm
17:00 -19.7 °F /  -28.7 °C -21.4 °F /  -29.7 °C 1033.1 in /  34980.8 hPa Calm     86 % 0.0 in /  0 mm
17:15 -19.7 °F /  -28.7 °C -21.3 °F /  -29.6 °C 1033.1 in /  34980.8 hPa Calm     87 % 0.0 in /  0 mm
17:30 -19.5 °F /  -28.6 °C -21.1 °F /  -29.5 °C 1033.4 in /  34990.9 hPa Calm     87 % 0.0 in /  0 mm
17:45 -19.2 °F /  -28.4 °C -20.7 °F /  -29.3 °C 1033.4 in /  34990.9 hPa Calm     88 % 0.0 in /  0 mm
18:00 -18.6 °F /  -28.1 °C -20.0 °F /  -28.9 °C 1033.4 in /  34990.9 hPa Calm     89 % 0.0 in /  0 mm
18:15 -18.0 °F /  -27.8 °C -19.4 °F /  -28.6 °C 1033.4 in /  34990.9 hPa Calm     89 % 0.0 in /  0 mm
18:30 -18.4 °F /  -28 °C -20.2 °F /  -29 °C 1033.7 in /  35001.1 hPa Calm     86 % 0.0 in /  0 mm
18:45 -19.0 °F /  -28.3 °C -20.9 °F /  -29.4 °C 1033.4 in /  34990.9 hPa Calm     85 % 0.0 in /  0 mm
19:00 -19.6 °F /  -28.7 °C -21.4 °F /  -29.7 °C 1033.4 in /  34990.9 hPa Calm     85 % 0.0 in /  0 mm
19:15 -19.9 °F /  -28.8 °C -21.8 °F /  -29.9 °C 1033.4 in /  34990.9 hPa Calm     85 % 0.0 in /  0 mm
19:30 -20.2 °F /  -29 °C -22.1 °F /  -30.1 °C 1033.7 in /  35001.1 hPa Calm     85 % 0.0 in /  0 mm
19:45 -20.2 °F /  -29 °C -21.9 °F /  -29.9 °C 1033.7 in /  35001.1 hPa Calm     86 % 0.0 in /  0 mm
20:00 -20.1 °F /  -28.9 °C -21.8 °F /  -29.9 °C 1033.7 in /  35001.1 hPa Calm     86 % 0.0 in /  0 mm
20:15 -20.2 °F /  -29 °C -21.9 °F /  -29.9 °C 1033.7 in /  35001.1 hPa Calm     86 % 0.0 in /  0 mm
20:30 -20.3 °F /  -29.1 °C -22.2 °F /  -30.1 °C 1034.1 in /  35014.6 hPa Calm     85 % 0.0 in /  0 mm
20:45 -20.6 °F /  -29.2 °C -22.5 °F /  -30.3 °C 1034.1 in /  35014.6 hPa Calm     85 % 0.0 in /  0 mm
21:00 -20.8 °F /  -29.3 °C -22.5 °F /  -30.3 °C 1034.1 in /  35014.6 hPa Calm     86 % 0.0 in /  0 mm
21:15 -20.9 °F /  -29.4 °C -22.8 °F /  -30.4 °C 1034.4 in /  35024.8 hPa Calm     85 % 0.0 in /  0 mm
21:30 -21.0 °F /  -29.4 °C -22.9 °F /  -30.5 °C 1034.4 in /  35024.8 hPa Calm     85 % 0.0 in /  0 mm
21:45 -20.9 °F /  -29.4 °C -22.6 °F /  -30.3 °C 1034.4 in /  35024.8 hPa Calm     86 % 0.0 in /  0 mm
22:00 -20.9 °F /  -29.4 °C -22.8 °F /  -30.4 °C 1034.4 in /  35024.8 hPa Calm     85 % 0.0 in /  0 mm
22:15 -21.1 °F /  -29.5 °C -22.9 °F /  -30.5 °C 1034.8 in /  35038.3 hPa Calm     85 % 0.0 in /  0 mm
22:30 -21.2 °F /  -29.6 °C -23.0 °F /  -30.6 °C 1034.8 in /  35038.3 hPa Calm     85 % 0.0 in /  0 mm
22:45 -21.3 °F /  -29.6 °C -23.2 °F /  -30.7 °C 1034.8 in /  35038.3 hPa Calm     85 % 0.0 in /  0 mm
23:00 -21.4 °F /  -29.7 °C -23.2 °F /  -30.7 °C 1034.8 in /  35038.3 hPa Calm     85 % 0.0 in /  0 mm
23:15 -21.5 °F /  -29.7 °C -23.3 °F /  -30.7 °C 1034.8 in /  35038.3 hPa Calm     85 % 0.0 in /  0 mm
23:30 -21.7 °F /  -29.8 °C -23.5 °F /  -30.8 °C 1035.1 in /  35048.5 hPa Calm     85 % 0.0 in /  0 mm
23:45 -21.8 °F /  -29.9 °C -23.7 °F /  -30.9 °C 1034.8 in /  35038.3 hPa Calm     85 % 0.0 in /  0 mm
Esan sääasema
Terveisin Weather Underground - 2.75 mb

Alkuperäinen skripti  Jim McMurry - jmcmurry@mwt.net Sovitettu myös templatelle  Wim van der Kuil - Leuven-Template.eu

Laitteet joita käytämme:

Sääasema
Davis VP2

Sääasemaohjelma
Cumulus

Sääaseman tietokone
Asus EeePC

Palveluntarjoaja
Suncomet

Davis VP2

Cumulus

Asus EeePC

Suncomet